sensor_id;sensor_type;location;lat;lon;timestamp;P1;durP1;ratioP1;P2;durP2;ratioP2
3865;SDS011;1948;53.250;10.412;2023-05-10T00:01:43;5.70;;;5.10;;
3865;SDS011;1948;53.250;10.412;2023-05-10T00:04:12;13.13;;;5.20;;
3865;SDS011;1948;53.250;10.412;2023-05-10T00:06:41;8.43;;;5.40;;
3865;SDS011;1948;53.250;10.412;2023-05-10T00:09:10;5.93;;;5.10;;
3865;SDS011;1948;53.250;10.412;2023-05-10T00:11:37;8.47;;;4.37;;
3865;SDS011;1948;53.250;10.412;2023-05-10T00:14:06;10.70;;;5.03;;
3865;SDS011;1948;53.250;10.412;2023-05-10T00:16:35;5.20;;;4.80;;
3865;SDS011;1948;53.250;10.412;2023-05-10T00:19:02;4.90;;;4.50;;
3865;SDS011;1948;53.250;10.412;2023-05-10T00:21:29;14.93;;;5.00;;
3865;SDS011;1948;53.250;10.412;2023-05-10T00:24:01;5.33;;;5.07;;
3865;SDS011;1948;53.250;10.412;2023-05-10T00:26:28;5.00;;;4.80;;
3865;SDS011;1948;53.250;10.412;2023-05-10T00:28:58;4.90;;;4.50;;
3865;SDS011;1948;53.250;10.412;2023-05-10T00:31:25;5.93;;;5.10;;
3865;SDS011;1948;53.250;10.412;2023-05-10T00:33:55;13.90;;;5.43;;
3865;SDS011;1948;53.250;10.412;2023-05-10T00:36:22;7.17;;;5.40;;
3865;SDS011;1948;53.250;10.412;2023-05-10T00:38:49;5.90;;;5.30;;
3865;SDS011;1948;53.250;10.412;2023-05-10T00:41:16;5.00;;;4.67;;
3865;SDS011;1948;53.250;10.412;2023-05-10T00:43:45;15.77;;;4.90;;
3865;SDS011;1948;53.250;10.412;2023-05-10T00:46:11;7.13;;;5.30;;
3865;SDS011;1948;53.250;10.412;2023-05-10T00:48:41;4.93;;;4.60;;
3865;SDS011;1948;53.250;10.412;2023-05-10T00:51:09;9.23;;;5.00;;
3865;SDS011;1948;53.250;10.412;2023-05-10T00:53:36;7.30;;;5.13;;
3865;SDS011;1948;53.250;10.412;2023-05-10T00:56:04;5.20;;;4.70;;
3865;SDS011;1948;53.250;10.412;2023-05-10T00:58:33;5.60;;;5.30;;
3865;SDS011;1948;53.250;10.412;2023-05-10T01:01:00;9.73;;;5.83;;
3865;SDS011;1948;53.250;10.412;2023-05-10T01:03:28;14.53;;;5.37;;
3865;SDS011;1948;53.250;10.412;2023-05-10T01:05:58;5.90;;;5.47;;
3865;SDS011;1948;53.250;10.412;2023-05-10T01:08:25;7.00;;;5.77;;
3865;SDS011;1948;53.250;10.412;2023-05-10T01:10:55;9.97;;;5.10;;
3865;SDS011;1948;53.250;10.412;2023-05-10T01:13:32;5.60;;;5.30;;
3865;SDS011;1948;53.250;10.412;2023-05-10T01:16:03;5.47;;;5.07;;
3865;SDS011;1948;53.250;10.412;2023-05-10T01:18:37;16.63;;;4.70;;
3865;SDS011;1948;53.250;10.412;2023-05-10T01:38:38;5.60;;;5.10;;
3865;SDS011;1948;53.250;10.412;2023-05-10T01:46:38;5.20;;;4.80;;
3865;SDS011;1948;53.250;10.412;2023-05-10T01:49:10;5.50;;;5.10;;
3865;SDS011;1948;53.250;10.412;2023-05-10T01:51:48;5.17;;;4.77;;
3865;SDS011;1948;53.250;10.412;2023-05-10T01:54:21;6.03;;;5.40;;
3865;SDS011;1948;53.250;10.412;2023-05-10T01:56:55;5.33;;;4.70;;
3865;SDS011;1948;53.250;10.412;2023-05-10T01:59:30;5.30;;;5.10;;
3865;SDS011;1948;53.250;10.412;2023-05-10T02:02:07;6.87;;;6.27;;
3865;SDS011;1948;53.250;10.412;2023-05-10T02:04:40;5.90;;;5.40;;
3865;SDS011;1948;53.250;10.412;2023-05-10T02:07:09;5.37;;;5.03;;
3865;SDS011;1948;53.250;10.412;2023-05-10T02:09:40;5.43;;;5.03;;
3865;SDS011;1948;53.250;10.412;2023-05-10T02:12:10;6.67;;;5.80;;
3865;SDS011;1948;53.250;10.412;2023-05-10T02:14:42;5.67;;;5.23;;
3865;SDS011;1948;53.250;10.412;2023-05-10T02:17:10;5.20;;;4.70;;
3865;SDS011;1948;53.250;10.412;2023-05-10T02:19:39;6.20;;;5.07;;
3865;SDS011;1948;53.250;10.412;2023-05-10T02:22:11;11.03;;;5.37;;
3865;SDS011;1948;53.250;10.412;2023-05-10T02:24:43;5.57;;;5.23;;
3865;SDS011;1948;53.250;10.412;2023-05-10T02:27:14;6.67;;;5.30;;
3865;SDS011;1948;53.250;10.412;2023-05-10T02:29:43;6.53;;;6.03;;
3865;SDS011;1948;53.250;10.412;2023-05-10T02:32:11;5.97;;;5.50;;
3865;SDS011;1948;53.250;10.412;2023-05-10T02:34:42;7.80;;;5.13;;
3865;SDS011;1948;53.250;10.412;2023-05-10T02:37:14;5.53;;;5.13;;
3865;SDS011;1948;53.250;10.412;2023-05-10T02:39:44;5.60;;;5.10;;
3865;SDS011;1948;53.250;10.412;2023-05-10T02:42:18;9.20;;;5.53;;
3865;SDS011;1948;53.250;10.412;2023-05-10T02:44:50;8.20;;;5.23;;
3865;SDS011;1948;53.250;10.412;2023-05-10T02:47:24;10.77;;;5.53;;
3865;SDS011;1948;53.250;10.412;2023-05-10T02:49:52;6.70;;;5.60;;
3865;SDS011;1948;53.250;10.412;2023-05-10T02:52:23;7.83;;;5.63;;
3865;SDS011;1948;53.250;10.412;2023-05-10T02:54:55;10.27;;;5.93;;
3865;SDS011;1948;53.250;10.412;2023-05-10T02:57:31;9.73;;;5.77;;
3865;SDS011;1948;53.250;10.412;2023-05-10T03:00:01;7.17;;;5.60;;
3865;SDS011;1948;53.250;10.412;2023-05-10T03:02:30;6.27;;;5.80;;
3865;SDS011;1948;53.250;10.412;2023-05-10T03:04:57;8.57;;;5.80;;
3865;SDS011;1948;53.250;10.412;2023-05-10T03:07:24;8.47;;;5.80;;
3865;SDS011;1948;53.250;10.412;2023-05-10T03:09:51;5.40;;;5.00;;
3865;SDS011;1948;53.250;10.412;2023-05-10T03:15:11;8.50;;;5.43;;
3865;SDS011;1948;53.250;10.412;2023-05-10T03:17:50;9.60;;;6.00;;
3865;SDS011;1948;53.250;10.412;2023-05-10T03:20:29;11.37;;;5.03;;
3865;SDS011;1948;53.250;10.412;2023-05-10T03:23:02;13.20;;;5.83;;
3865;SDS011;1948;53.250;10.412;2023-05-10T03:25:40;7.20;;;5.53;;
3865;SDS011;1948;53.250;10.412;2023-05-10T03:28:11;5.87;;;5.30;;
3865;SDS011;1948;53.250;10.412;2023-05-10T03:30:43;7.00;;;6.10;;
3865;SDS011;1948;53.250;10.412;2023-05-10T03:33:13;6.33;;;5.73;;
3865;SDS011;1948;53.250;10.412;2023-05-10T03:35:42;5.90;;;5.50;;
3865;SDS011;1948;53.250;10.412;2023-05-10T03:38:12;8.40;;;5.70;;
3865;SDS011;1948;53.250;10.412;2023-05-10T03:40:42;5.97;;;5.40;;
3865;SDS011;1948;53.250;10.412;2023-05-10T03:43:09;5.83;;;5.40;;
3865;SDS011;1948;53.250;10.412;2023-05-10T03:45:36;8.43;;;5.50;;
3865;SDS011;1948;53.250;10.412;2023-05-10T03:48:05;7.80;;;5.70;;
3865;SDS011;1948;53.250;10.412;2023-05-10T03:50:32;10.57;;;5.70;;
3865;SDS011;1948;53.250;10.412;2023-05-10T03:52:59;8.27;;;5.80;;
3865;SDS011;1948;53.250;10.412;2023-05-10T03:55:26;8.00;;;6.07;;
3865;SDS011;1948;53.250;10.412;2023-05-10T03:57:54;11.23;;;5.00;;
3865;SDS011;1948;53.250;10.412;2023-05-10T04:00:21;5.93;;;5.47;;
3865;SDS011;1948;53.250;10.412;2023-05-10T04:02:51;7.67;;;5.33;;
3865;SDS011;1948;53.250;10.412;2023-05-10T04:05:18;13.03;;;5.80;;
3865;SDS011;1948;53.250;10.412;2023-05-10T04:07:45;5.47;;;5.00;;
3865;SDS011;1948;53.250;10.412;2023-05-10T04:10:13;10.00;;;6.03;;
3865;SDS011;1948;53.250;10.412;2023-05-10T04:12:40;9.07;;;5.03;;
3865;SDS011;1948;53.250;10.412;2023-05-10T04:15:07;6.60;;;6.00;;
3865;SDS011;1948;53.250;10.412;2023-05-10T04:17:35;8.90;;;5.40;;
3865;SDS011;1948;53.250;10.412;2023-05-10T04:20:02;6.83;;;5.53;;
3865;SDS011;1948;53.250;10.412;2023-05-10T04:22:29;6.20;;;5.77;;
3865;SDS011;1948;53.250;10.412;2023-05-10T04:24:56;8.13;;;5.60;;
3865;SDS011;1948;53.250;10.412;2023-05-10T04:27:23;5.17;;;4.77;;
3865;SDS011;1948;53.250;10.412;2023-05-10T04:29:52;9.73;;;5.10;;
3865;SDS011;1948;53.250;10.412;2023-05-10T04:32:19;6.13;;;5.63;;
3865;SDS011;1948;53.250;10.412;2023-05-10T04:34:46;5.27;;;4.97;;
3865;SDS011;1948;53.250;10.412;2023-05-10T04:37:17;12.03;;;5.20;;
3865;SDS011;1948;53.250;10.412;2023-05-10T04:39:47;9.27;;;5.67;;
3865;SDS011;1948;53.250;10.412;2023-05-10T04:42:14;5.60;;;5.27;;
3865;SDS011;1948;53.250;10.412;2023-05-10T04:44:41;8.87;;;6.10;;
3865;SDS011;1948;53.250;10.412;2023-05-10T04:47:10;5.73;;;5.30;;
3865;SDS011;1948;53.250;10.412;2023-05-10T04:49:39;7.20;;;5.47;;
3865;SDS011;1948;53.250;10.412;2023-05-10T04:52:08;5.87;;;5.37;;
3865;SDS011;1948;53.250;10.412;2023-05-10T04:54:35;5.50;;;5.17;;
3865;SDS011;1948;53.250;10.412;2023-05-10T04:57:02;5.70;;;5.30;;
3865;SDS011;1948;53.250;10.412;2023-05-10T04:59:29;12.90;;;5.53;;
3865;SDS011;1948;53.250;10.412;2023-05-10T05:01:56;9.67;;;5.27;;
3865;SDS011;1948;53.250;10.412;2023-05-10T05:04:25;5.47;;;5.17;;
3865;SDS011;1948;53.250;10.412;2023-05-10T05:06:54;5.60;;;5.30;;
3865;SDS011;1948;53.250;10.412;2023-05-10T05:09:23;5.60;;;5.17;;
3865;SDS011;1948;53.250;10.412;2023-05-10T05:11:50;10.00;;;5.40;;
3865;SDS011;1948;53.250;10.412;2023-05-10T05:14:20;5.60;;;5.30;;
3865;SDS011;1948;53.250;10.412;2023-05-10T05:16:51;9.23;;;6.03;;
3865;SDS011;1948;53.250;10.412;2023-05-10T05:19:21;5.03;;;4.73;;
3865;SDS011;1948;53.250;10.412;2023-05-10T05:21:53;5.23;;;4.93;;
3865;SDS011;1948;53.250;10.412;2023-05-10T05:24:20;5.40;;;5.17;;
3865;SDS011;1948;53.250;10.412;2023-05-10T05:26:47;5.30;;;5.07;;
3865;SDS011;1948;53.250;10.412;2023-05-10T05:29:14;5.30;;;5.10;;
3865;SDS011;1948;53.250;10.412;2023-05-10T05:31:46;5.93;;;5.37;;
3865;SDS011;1948;53.250;10.412;2023-05-10T05:34:15;10.33;;;5.20;;
3865;SDS011;1948;53.250;10.412;2023-05-10T05:36:48;6.00;;;4.97;;
3865;SDS011;1948;53.250;10.412;2023-05-10T05:39:18;6.00;;;5.40;;
3865;SDS011;1948;53.250;10.412;2023-05-10T05:41:45;15.63;;;5.20;;
3865;SDS011;1948;53.250;10.412;2023-05-10T05:44:12;10.60;;;5.17;;
3865;SDS011;1948;53.250;10.412;2023-05-10T05:46:42;6.37;;;5.23;;
3865;SDS011;1948;53.250;10.412;2023-05-10T05:49:09;5.80;;;5.30;;
3865;SDS011;1948;53.250;10.412;2023-05-10T05:51:36;9.10;;;6.10;;
3865;SDS011;1948;53.250;10.412;2023-05-10T05:54:03;5.33;;;4.90;;
3865;SDS011;1948;53.250;10.412;2023-05-10T05:56:30;5.37;;;4.83;;
3865;SDS011;1948;53.250;10.412;2023-05-10T05:58:57;5.53;;;5.00;;
3865;SDS011;1948;53.250;10.412;2023-05-10T06:01:26;5.43;;;5.10;;
3865;SDS011;1948;53.250;10.412;2023-05-10T06:03:53;5.97;;;5.50;;
3865;SDS011;1948;53.250;10.412;2023-05-10T06:06:20;12.33;;;5.33;;
3865;SDS011;1948;53.250;10.412;2023-05-10T06:08:47;5.50;;;5.30;;
3865;SDS011;1948;53.250;10.412;2023-05-10T06:11:17;6.00;;;5.53;;
3865;SDS011;1948;53.250;10.412;2023-05-10T06:13:44;5.53;;;5.17;;
3865;SDS011;1948;53.250;10.412;2023-05-10T06:16:16;6.20;;;5.20;;
3865;SDS011;1948;53.250;10.412;2023-05-10T06:18:43;6.67;;;6.07;;
3865;SDS011;1948;53.250;10.412;2023-05-10T06:21:10;6.43;;;5.70;;
3865;SDS011;1948;53.250;10.412;2023-05-10T06:23:40;6.33;;;5.87;;
3865;SDS011;1948;53.250;10.412;2023-05-10T06:26:08;8.60;;;5.30;;
3865;SDS011;1948;53.250;10.412;2023-05-10T06:28:35;5.73;;;5.43;;
3865;SDS011;1948;53.250;10.412;2023-05-10T06:31:04;5.80;;;4.50;;
3865;SDS011;1948;53.250;10.412;2023-05-10T06:33:32;11.10;;;4.70;;
3865;SDS011;1948;53.250;10.412;2023-05-10T06:36:05;5.30;;;5.00;;
3865;SDS011;1948;53.250;10.412;2023-05-10T06:38:32;5.50;;;5.10;;
3865;SDS011;1948;53.250;10.412;2023-05-10T06:40:59;5.43;;;5.03;;
3865;SDS011;1948;53.250;10.412;2023-05-10T06:43:26;5.77;;;5.10;;
3865;SDS011;1948;53.250;10.412;2023-05-10T06:45:56;6.07;;;5.47;;
3865;SDS011;1948;53.250;10.412;2023-05-10T06:48:25;9.83;;;5.17;;
3865;SDS011;1948;53.250;10.412;2023-05-10T06:50:52;6.00;;;4.97;;
3865;SDS011;1948;53.250;10.412;2023-05-10T06:53:21;8.00;;;5.47;;
3865;SDS011;1948;53.250;10.412;2023-05-10T06:55:49;10.00;;;5.07;;
3865;SDS011;1948;53.250;10.412;2023-05-10T06:58:16;5.33;;;5.00;;
3865;SDS011;1948;53.250;10.412;2023-05-10T07:00:43;5.30;;;5.00;;
3865;SDS011;1948;53.250;10.412;2023-05-10T07:03:11;6.23;;;5.70;;
3865;SDS011;1948;53.250;10.412;2023-05-10T07:05:38;7.57;;;5.33;;
3865;SDS011;1948;53.250;10.412;2023-05-10T07:08:05;5.37;;;5.07;;
3865;SDS011;1948;53.250;10.412;2023-05-10T07:10:32;5.87;;;5.33;;
3865;SDS011;1948;53.250;10.412;2023-05-10T07:12:59;11.07;;;6.00;;
3865;SDS011;1948;53.250;10.412;2023-05-10T07:15:28;8.30;;;5.53;;
3865;SDS011;1948;53.250;10.412;2023-05-10T07:17:58;5.37;;;4.87;;
3865;SDS011;1948;53.250;10.412;2023-05-10T07:20:25;8.13;;;5.00;;
3865;SDS011;1948;53.250;10.412;2023-05-10T07:22:52;5.63;;;5.33;;
3865;SDS011;1948;53.250;10.412;2023-05-10T07:25:19;5.17;;;4.80;;
3865;SDS011;1948;53.250;10.412;2023-05-10T07:27:51;5.97;;;5.33;;
3865;SDS011;1948;53.250;10.412;2023-05-10T07:30:18;9.10;;;5.20;;
3865;SDS011;1948;53.250;10.412;2023-05-10T07:32:45;5.83;;;4.97;;
3865;SDS011;1948;53.250;10.412;2023-05-10T07:35:17;10.83;;;4.93;;
3865;SDS011;1948;53.250;10.412;2023-05-10T07:37:46;16.60;;;5.40;;
3865;SDS011;1948;53.250;10.412;2023-05-10T07:40:13;8.97;;;4.87;;
3865;SDS011;1948;53.250;10.412;2023-05-10T07:42:45;21.57;;;4.90;;
3865;SDS011;1948;53.250;10.412;2023-05-10T07:45:14;5.60;;;5.20;;
3865;SDS011;1948;53.250;10.412;2023-05-10T07:47:41;6.80;;;4.70;;
3865;SDS011;1948;53.250;10.412;2023-05-10T07:50:08;8.30;;;5.40;;
3865;SDS011;1948;53.250;10.412;2023-05-10T07:52:37;8.23;;;5.33;;
3865;SDS011;1948;53.250;10.412;2023-05-10T07:55:04;5.33;;;5.10;;
3865;SDS011;1948;53.250;10.412;2023-05-10T07:57:34;7.97;;;4.97;;
3865;SDS011;1948;53.250;10.412;2023-05-10T08:00:02;9.37;;;5.47;;
3865;SDS011;1948;53.250;10.412;2023-05-10T08:02:29;6.10;;;5.70;;
3865;SDS011;1948;53.250;10.412;2023-05-10T08:04:56;5.00;;;4.70;;
3865;SDS011;1948;53.250;10.412;2023-05-10T08:07:26;5.40;;;4.90;;
3865;SDS011;1948;53.250;10.412;2023-05-10T08:09:57;5.80;;;5.00;;
3865;SDS011;1948;53.250;10.412;2023-05-10T08:12:26;5.30;;;4.90;;
3865;SDS011;1948;53.250;10.412;2023-05-10T08:14:56;7.47;;;4.97;;
3865;SDS011;1948;53.250;10.412;2023-05-10T08:17:23;5.23;;;4.93;;
3865;SDS011;1948;53.250;10.412;2023-05-10T08:19:50;5.70;;;5.30;;
3865;SDS011;1948;53.250;10.412;2023-05-10T08:22:17;5.93;;;5.50;;
3865;SDS011;1948;53.250;10.412;2023-05-10T08:24:46;7.73;;;5.30;;
3865;SDS011;1948;53.250;10.412;2023-05-10T08:27:13;9.70;;;7.27;;
3865;SDS011;1948;53.250;10.412;2023-05-10T08:29:40;10.57;;;5.27;;
3865;SDS011;1948;53.250;10.412;2023-05-10T08:32:18;8.90;;;5.57;;
3865;SDS011;1948;53.250;10.412;2023-05-10T08:34:45;6.57;;;6.07;;
3865;SDS011;1948;53.250;10.412;2023-05-10T08:37:14;6.53;;;5.40;;
3865;SDS011;1948;53.250;10.412;2023-05-10T08:39:44;6.57;;;6.00;;
3865;SDS011;1948;53.250;10.412;2023-05-10T08:42:14;13.37;;;5.70;;
3865;SDS011;1948;53.250;10.412;2023-05-10T08:44:47;7.03;;;5.90;;
3865;SDS011;1948;53.250;10.412;2023-05-10T08:47:16;21.23;;;6.00;;
3865;SDS011;1948;53.250;10.412;2023-05-10T08:49:44;5.50;;;5.20;;
3865;SDS011;1948;53.250;10.412;2023-05-10T08:52:17;9.00;;;5.70;;
3865;SDS011;1948;53.250;10.412;2023-05-10T08:54:49;6.70;;;5.50;;
3865;SDS011;1948;53.250;10.412;2023-05-10T08:57:16;10.13;;;6.13;;
3865;SDS011;1948;53.250;10.412;2023-05-10T08:59:45;8.30;;;5.97;;
3865;SDS011;1948;53.250;10.412;2023-05-10T09:02:12;6.30;;;5.90;;
3865;SDS011;1948;53.250;10.412;2023-05-10T09:04:43;6.60;;;6.00;;
3865;SDS011;1948;53.250;10.412;2023-05-10T09:07:13;5.80;;;5.40;;
3865;SDS011;1948;53.250;10.412;2023-05-10T09:09:43;13.53;;;5.97;;
3865;SDS011;1948;53.250;10.412;2023-05-10T09:12:12;7.00;;;6.40;;
3865;SDS011;1948;53.250;10.412;2023-05-10T09:14:42;11.23;;;6.77;;
3865;SDS011;1948;53.250;10.412;2023-05-10T09:17:11;9.50;;;6.03;;
3865;SDS011;1948;53.250;10.412;2023-05-10T09:19:39;10.50;;;5.90;;
3865;SDS011;1948;53.250;10.412;2023-05-10T09:22:05;13.93;;;6.50;;
3865;SDS011;1948;53.250;10.412;2023-05-10T09:24:35;9.23;;;6.20;;
3865;SDS011;1948;53.250;10.412;2023-05-10T09:27:05;6.00;;;5.70;;
3865;SDS011;1948;53.250;10.412;2023-05-10T09:29:38;6.97;;;5.70;;
3865;SDS011;1948;53.250;10.412;2023-05-10T09:32:09;6.03;;;5.73;;
3865;SDS011;1948;53.250;10.412;2023-05-10T09:34:38;7.33;;;5.83;;
3865;SDS011;1948;53.250;10.412;2023-05-10T09:37:06;8.33;;;6.37;;
3865;SDS011;1948;53.250;10.412;2023-05-10T09:39:38;7.17;;;6.23;;
3865;SDS011;1948;53.250;10.412;2023-05-10T09:42:12;8.20;;;6.40;;
3865;SDS011;1948;53.250;10.412;2023-05-10T09:44:39;8.20;;;7.43;;
3865;SDS011;1948;53.250;10.412;2023-05-10T09:47:07;14.50;;;6.87;;
3865;SDS011;1948;53.250;10.412;2023-05-10T09:49:34;21.83;;;6.97;;
3865;SDS011;1948;53.250;10.412;2023-05-10T09:52:04;7.30;;;6.40;;
3865;SDS011;1948;53.250;10.412;2023-05-10T09:54:34;5.77;;;5.57;;
3865;SDS011;1948;53.250;10.412;2023-05-10T09:57:02;20.20;;;7.53;;
3865;SDS011;1948;53.250;10.412;2023-05-10T09:59:29;10.63;;;6.07;;
3865;SDS011;1948;53.250;10.412;2023-05-10T10:01:59;9.50;;;7.27;;
3865;SDS011;1948;53.250;10.412;2023-05-10T10:04:27;9.40;;;6.73;;
3865;SDS011;1948;53.250;10.412;2023-05-10T10:07:01;16.53;;;7.00;;
3865;SDS011;1948;53.250;10.412;2023-05-10T10:09:30;12.47;;;6.97;;
3865;SDS011;1948;53.250;10.412;2023-05-10T10:11:58;12.50;;;6.80;;
3865;SDS011;1948;53.250;10.412;2023-05-10T10:14:26;19.27;;;7.33;;
3865;SDS011;1948;53.250;10.412;2023-05-10T10:16:54;8.73;;;7.93;;
3865;SDS011;1948;53.250;10.412;2023-05-10T10:19:36;14.53;;;7.40;;
3865;SDS011;1948;53.250;10.412;2023-05-10T10:22:03;8.73;;;7.93;;
3865;SDS011;1948;53.250;10.412;2023-05-10T10:24:31;10.13;;;7.90;;
3865;SDS011;1948;53.250;10.412;2023-05-10T10:27:11;9.30;;;7.63;;
3865;SDS011;1948;53.250;10.412;2023-05-10T10:35:42;9.80;;;8.27;;
3865;SDS011;1948;53.250;10.412;2023-05-10T10:38:13;10.23;;;9.40;;
3865;SDS011;1948;53.250;10.412;2023-05-10T10:40:40;9.47;;;8.70;;
3865;SDS011;1948;53.250;10.412;2023-05-10T10:43:24;10.53;;;9.60;;
3865;SDS011;1948;53.250;10.412;2023-05-10T10:48:47;13.33;;;10.53;;
3865;SDS011;1948;53.250;10.412;2023-05-10T10:51:17;10.77;;;9.70;;
3865;SDS011;1948;53.250;10.412;2023-05-10T10:53:44;10.63;;;9.63;;
3865;SDS011;1948;53.250;10.412;2023-05-10T10:56:14;12.30;;;10.50;;
3865;SDS011;1948;53.250;10.412;2023-05-10T10:58:42;11.23;;;9.40;;
3865;SDS011;1948;53.250;10.412;2023-05-10T11:01:18;9.87;;;8.97;;
3865;SDS011;1948;53.250;10.412;2023-05-10T11:06:46;11.37;;;10.30;;
3865;SDS011;1948;53.250;10.412;2023-05-10T11:09:12;14.13;;;12.27;;
3865;SDS011;1948;53.250;10.412;2023-05-10T11:11:51;16.77;;;12.40;;
3865;SDS011;1948;53.250;10.412;2023-05-10T11:14:24;13.90;;;12.00;;
3865;SDS011;1948;53.250;10.412;2023-05-10T11:16:54;11.47;;;10.47;;
3865;SDS011;1948;53.250;10.412;2023-05-10T11:19:21;12.80;;;10.93;;
3865;SDS011;1948;53.250;10.412;2023-05-10T11:24:30;10.93;;;9.90;;
3865;SDS011;1948;53.250;10.412;2023-05-10T11:26:57;11.80;;;10.80;;
3865;SDS011;1948;53.250;10.412;2023-05-10T11:29:27;10.27;;;9.33;;
3865;SDS011;1948;53.250;10.412;2023-05-10T11:31:57;16.17;;;12.00;;
3865;SDS011;1948;53.250;10.412;2023-05-10T11:34:30;11.93;;;10.83;;
3865;SDS011;1948;53.250;10.412;2023-05-10T11:37:00;11.20;;;10.10;;
3865;SDS011;1948;53.250;10.412;2023-05-10T11:39:31;11.57;;;10.57;;
3865;SDS011;1948;53.250;10.412;2023-05-10T11:41:59;14.00;;;11.90;;
3865;SDS011;1948;53.250;10.412;2023-05-10T11:44:29;21.57;;;10.63;;
3865;SDS011;1948;53.250;10.412;2023-05-10T11:46:58;14.67;;;10.30;;
3865;SDS011;1948;53.250;10.412;2023-05-10T11:49:29;10.70;;;9.70;;
3865;SDS011;1948;53.250;10.412;2023-05-10T11:52:06;11.83;;;10.67;;
3865;SDS011;1948;53.250;10.412;2023-05-10T11:54:34;11.90;;;10.70;;
3865;SDS011;1948;53.250;10.412;2023-05-10T11:57:03;11.83;;;10.70;;
3865;SDS011;1948;53.250;10.412;2023-05-10T11:59:30;15.17;;;12.00;;
3865;SDS011;1948;53.250;10.412;2023-05-10T12:01:57;14.03;;;10.53;;
3865;SDS011;1948;53.250;10.412;2023-05-10T12:04:25;12.37;;;11.17;;
3865;SDS011;1948;53.250;10.412;2023-05-10T12:06:55;12.93;;;11.60;;
3865;SDS011;1948;53.250;10.412;2023-05-10T12:09:24;18.27;;;11.27;;
3865;SDS011;1948;53.250;10.412;2023-05-10T12:12:08;12.27;;;11.17;;
3865;SDS011;1948;53.250;10.412;2023-05-10T12:14:36;12.37;;;11.17;;
3865;SDS011;1948;53.250;10.412;2023-05-10T12:17:03;11.57;;;10.67;;
3865;SDS011;1948;53.250;10.412;2023-05-10T12:19:39;11.73;;;9.87;;
3865;SDS011;1948;53.250;10.412;2023-05-10T12:22:07;12.03;;;11.10;;
3865;SDS011;1948;53.250;10.412;2023-05-10T12:24:37;11.87;;;10.97;;
3865;SDS011;1948;53.250;10.412;2023-05-10T12:27:05;13.20;;;11.90;;
3865;SDS011;1948;53.250;10.412;2023-05-10T12:29:34;15.00;;;11.20;;
3865;SDS011;1948;53.250;10.412;2023-05-10T12:32:07;14.03;;;11.07;;
3865;SDS011;1948;53.250;10.412;2023-05-10T12:34:35;12.37;;;10.10;;
3865;SDS011;1948;53.250;10.412;2023-05-10T12:37:03;12.80;;;11.50;;
3865;SDS011;1948;53.250;10.412;2023-05-10T12:39:38;11.60;;;10.57;;
3865;SDS011;1948;53.250;10.412;2023-05-10T12:42:12;11.83;;;10.73;;
3865;SDS011;1948;53.250;10.412;2023-05-10T12:44:39;13.10;;;11.40;;
3865;SDS011;1948;53.250;10.412;2023-05-10T12:47:10;11.90;;;11.00;;
3865;SDS011;1948;53.250;10.412;2023-05-10T12:49:37;12.93;;;11.70;;
3865;SDS011;1948;53.250;10.412;2023-05-10T12:52:07;13.07;;;11.53;;
3865;SDS011;1948;53.250;10.412;2023-05-10T12:54:34;11.30;;;10.50;;
3865;SDS011;1948;53.250;10.412;2023-05-10T12:57:01;11.60;;;10.57;;
3865;SDS011;1948;53.250;10.412;2023-05-10T12:59:28;13.10;;;11.80;;
3865;SDS011;1948;53.250;10.412;2023-05-10T13:02:03;12.67;;;11.20;;
3865;SDS011;1948;53.250;10.412;2023-05-10T13:04:30;11.53;;;10.43;;
3865;SDS011;1948;53.250;10.412;2023-05-10T13:06:57;13.70;;;12.17;;
3865;SDS011;1948;53.250;10.412;2023-05-10T13:09:26;10.13;;;9.33;;
3865;SDS011;1948;53.250;10.412;2023-05-10T13:11:55;12.50;;;9.27;;
3865;SDS011;1948;53.250;10.412;2023-05-10T13:14:24;10.03;;;9.20;;
3865;SDS011;1948;53.250;10.412;2023-05-10T13:16:52;9.67;;;8.70;;
3865;SDS011;1948;53.250;10.412;2023-05-10T13:19:19;11.10;;;10.30;;
3865;SDS011;1948;53.250;10.412;2023-05-10T13:21:49;9.20;;;8.60;;
3865;SDS011;1948;53.250;10.412;2023-05-10T13:24:16;11.10;;;10.07;;
3865;SDS011;1948;53.250;10.412;2023-05-10T13:26:49;9.77;;;8.93;;
3865;SDS011;1948;53.250;10.412;2023-05-10T13:29:20;8.27;;;7.87;;
3865;SDS011;1948;53.250;10.412;2023-05-10T13:31:48;10.17;;;9.17;;
3865;SDS011;1948;53.250;10.412;2023-05-10T13:34:18;10.00;;;9.30;;
3865;SDS011;1948;53.250;10.412;2023-05-10T13:36:47;9.73;;;8.83;;
3865;SDS011;1948;53.250;10.412;2023-05-10T13:39:15;8.60;;;7.83;;
3865;SDS011;1948;53.250;10.412;2023-05-10T13:41:42;7.93;;;7.23;;
3865;SDS011;1948;53.250;10.412;2023-05-10T13:44:08;7.77;;;7.17;;
3865;SDS011;1948;53.250;10.412;2023-05-10T13:46:38;7.30;;;6.93;;
3865;SDS011;1948;53.250;10.412;2023-05-10T13:49:08;21.13;;;6.87;;
3865;SDS011;1948;53.250;10.412;2023-05-10T13:51:38;6.70;;;6.40;;
3865;SDS011;1948;53.250;10.412;2023-05-10T13:54:09;7.83;;;7.30;;
3865;SDS011;1948;53.250;10.412;2023-05-10T13:56:39;7.07;;;6.77;;
3865;SDS011;1948;53.250;10.412;2023-05-10T13:59:08;7.73;;;7.10;;
3865;SDS011;1948;53.250;10.412;2023-05-10T14:01:35;7.47;;;6.93;;
3865;SDS011;1948;53.250;10.412;2023-05-10T14:04:05;7.70;;;6.37;;
3865;SDS011;1948;53.250;10.412;2023-05-10T14:06:33;6.63;;;6.33;;
3865;SDS011;1948;53.250;10.412;2023-05-10T14:09:00;6.73;;;6.13;;
3865;SDS011;1948;53.250;10.412;2023-05-10T14:11:27;7.07;;;6.57;;
3865;SDS011;1948;53.250;10.412;2023-05-10T14:13:53;6.50;;;6.20;;
3865;SDS011;1948;53.250;10.412;2023-05-10T14:16:20;5.90;;;5.63;;
3865;SDS011;1948;53.250;10.412;2023-05-10T14:18:48;6.50;;;6.13;;
3865;SDS011;1948;53.250;10.412;2023-05-10T14:21:15;5.67;;;5.47;;
3865;SDS011;1948;53.250;10.412;2023-05-10T14:23:43;5.57;;;5.03;;
3865;SDS011;1948;53.250;10.412;2023-05-10T14:26:09;6.10;;;5.30;;
3865;SDS011;1948;53.250;10.412;2023-05-10T14:28:36;5.20;;;5.00;;
3865;SDS011;1948;53.250;10.412;2023-05-10T14:31:03;5.50;;;5.10;;
3865;SDS011;1948;53.250;10.412;2023-05-10T14:33:31;5.00;;;4.70;;
3865;SDS011;1948;53.250;10.412;2023-05-10T14:36:01;6.03;;;4.60;;
3865;SDS011;1948;53.250;10.412;2023-05-10T14:38:29;5.10;;;4.90;;
3865;SDS011;1948;53.250;10.412;2023-05-10T14:40:56;4.53;;;4.33;;
3865;SDS011;1948;53.250;10.412;2023-05-10T14:43:23;5.07;;;4.87;;
3865;SDS011;1948;53.250;10.412;2023-05-10T14:45:57;4.13;;;4.03;;
3865;SDS011;1948;53.250;10.412;2023-05-10T14:48:27;4.90;;;4.80;;
3865;SDS011;1948;53.250;10.412;2023-05-10T14:50:54;6.80;;;5.23;;
3865;SDS011;1948;53.250;10.412;2023-05-10T14:53:23;3.73;;;3.57;;
3865;SDS011;1948;53.250;10.412;2023-05-10T14:55:53;4.20;;;4.10;;
3865;SDS011;1948;53.250;10.412;2023-05-10T14:58:19;3.70;;;3.60;;
3865;SDS011;1948;53.250;10.412;2023-05-10T15:00:46;3.70;;;3.60;;
3865;SDS011;1948;53.250;10.412;2023-05-10T15:03:16;7.13;;;3.63;;
3865;SDS011;1948;53.250;10.412;2023-05-10T15:05:43;4.03;;;3.73;;
3865;SDS011;1948;53.250;10.412;2023-05-10T15:08:10;3.50;;;3.50;;
3865;SDS011;1948;53.250;10.412;2023-05-10T15:10:39;7.10;;;3.60;;
3865;SDS011;1948;53.250;10.412;2023-05-10T15:13:06;3.60;;;3.60;;
3865;SDS011;1948;53.250;10.412;2023-05-10T15:15:33;7.30;;;3.60;;
3865;SDS011;1948;53.250;10.412;2023-05-10T15:18:00;3.57;;;3.47;;
3865;SDS011;1948;53.250;10.412;2023-05-10T15:20:26;3.70;;;3.43;;
3865;SDS011;1948;53.250;10.412;2023-05-10T15:22:56;3.60;;;3.50;;
3865;SDS011;1948;53.250;10.412;2023-05-10T15:25:26;3.50;;;3.40;;
3865;SDS011;1948;53.250;10.412;2023-05-10T15:27:54;3.30;;;3.13;;
3865;SDS011;1948;53.250;10.412;2023-05-10T15:30:21;4.07;;;3.73;;
3865;SDS011;1948;53.250;10.412;2023-05-10T15:32:48;3.90;;;3.70;;
3865;SDS011;1948;53.250;10.412;2023-05-10T15:35:15;4.60;;;4.00;;
3865;SDS011;1948;53.250;10.412;2023-05-10T15:37:43;3.70;;;3.60;;
3865;SDS011;1948;53.250;10.412;2023-05-10T15:40:10;3.87;;;3.77;;
3865;SDS011;1948;53.250;10.412;2023-05-10T15:42:39;3.80;;;3.70;;
3865;SDS011;1948;53.250;10.412;2023-05-10T15:45:06;4.73;;;4.30;;
3865;SDS011;1948;53.250;10.412;2023-05-10T15:47:33;3.63;;;3.50;;